createdAt,value
2018-06-05T00:13:32.802Z,21.50
2018-06-05T00:18:36.768Z,21.40
2018-06-05T00:23:40.722Z,21.40
2018-06-05T00:28:44.691Z,21.20
2018-06-05T00:33:48.643Z,20.80
2018-06-05T00:38:54.152Z,20.90
2018-06-05T00:43:58.329Z,20.30
2018-06-05T00:49:03.010Z,20.80
2018-06-05T00:54:06.978Z,20.80
2018-06-05T00:59:10.965Z,21.00
2018-06-05T01:04:14.884Z,21.20
2018-06-05T01:09:18.850Z,21.30
2018-06-05T01:14:22.822Z,21.20
2018-06-05T01:19:26.781Z,21.30
2018-06-05T01:29:34.304Z,21.20
2018-06-05T01:34:38.276Z,21.10
2018-06-05T01:39:42.210Z,20.90
2018-06-05T01:44:46.195Z,20.20
2018-06-05T01:49:50.153Z,20.60
2018-06-05T01:54:54.119Z,21.20
2018-06-05T01:59:58.090Z,21.10
2018-06-05T02:05:02.070Z,20.80
2018-06-05T02:10:06.014Z,21.10
2018-06-05T02:15:09.946Z,21.20
2018-06-05T02:20:13.893Z,21.40
2018-06-05T02:25:17.936Z,21.50
2018-06-05T02:30:21.894Z,21.20
2018-06-05T02:35:26.675Z,21.20
2018-06-05T02:40:30.624Z,21.20
2018-06-05T02:45:34.627Z,21.00
2018-06-05T02:50:38.582Z,21.20
2018-06-05T02:55:42.567Z,21.10
2018-06-05T03:00:46.529Z,21.10
2018-06-05T03:05:50.690Z,21.20
2018-06-05T03:10:55.427Z,21.30
2018-06-05T03:15:59.383Z,21.40
2018-06-05T03:21:03.323Z,21.30
2018-06-05T03:26:07.279Z,21.30
2018-06-05T03:31:11.228Z,21.20
2018-06-05T03:41:18.797Z,21.20
2018-06-05T03:46:22.796Z,21.10
2018-06-05T03:56:30.400Z,21.10
2018-06-05T04:01:34.353Z,21.10
2018-06-05T04:06:38.325Z,21.10
2018-06-05T04:11:42.286Z,20.90
2018-06-05T04:16:46.234Z,21.00
2018-06-05T04:21:50.219Z,21.00
2018-06-05T04:26:54.158Z,21.00
2018-06-05T04:31:58.098Z,21.00
2018-06-05T04:37:02.044Z,20.90
2018-06-05T04:47:10.446Z,21.10
2018-06-05T04:52:14.395Z,21.20
2018-06-05T04:57:18.352Z,21.10
2018-06-05T05:02:22.302Z,21.00
2018-06-05T05:07:26.261Z,21.10
2018-06-05T05:12:30.195Z,21.10
2018-06-05T05:17:34.141Z,20.70
2018-06-05T05:22:38.098Z,20.70
2018-06-05T05:27:42.434Z,21.00
2018-06-05T05:32:46.371Z,20.80
2018-06-05T05:37:50.359Z,20.70
2018-06-05T05:47:57.961Z,21.00
2018-06-05T05:53:01.952Z,20.00
2018-06-05T05:58:05.892Z,20.50
2018-06-05T06:03:09.835Z,20.50
2018-06-05T06:08:13.815Z,21.00
2018-06-05T06:13:17.826Z,21.20
2018-06-05T06:23:25.414Z,21.10
2018-06-05T06:28:29.370Z,21.30
2018-06-05T06:33:33.377Z,21.20
2018-06-05T06:38:37.383Z,21.20
2018-06-05T06:43:42.087Z,21.30
2018-06-05T06:48:46.098Z,21.50
2018-06-05T06:58:53.693Z,21.50
2018-06-05T07:03:57.646Z,21.60
2018-06-05T07:09:01.671Z,21.60
2018-06-05T07:14:05.649Z,21.50
2018-06-05T07:19:09.634Z,21.60
2018-06-05T07:29:17.191Z,21.70
2018-06-05T07:34:21.162Z,22.00
2018-06-05T07:39:25.110Z,22.30
2018-06-05T07:49:33.020Z,22.10
2018-06-05T07:54:36.969Z,22.00
2018-06-05T07:59:40.922Z,22.20
2018-06-05T08:04:45.686Z,22.20
2018-06-05T08:09:49.650Z,22.10
2018-06-05T08:14:53.639Z,21.70
2018-06-05T08:19:57.598Z,21.60
2018-06-05T08:25:01.588Z,22.00
2018-06-05T08:30:05.563Z,22.10
2018-06-05T08:35:10.096Z,22.20
2018-06-05T08:40:14.134Z,21.90
2018-06-05T08:45:18.095Z,22.10
2018-06-05T08:50:22.190Z,22.00
2018-06-05T08:55:26.170Z,22.00
2018-06-05T09:00:30.119Z,22.20
2018-06-05T09:05:34.095Z,22.10
2018-06-05T09:10:38.046Z,21.90
2018-06-05T09:15:42.035Z,22.10
2018-06-05T09:20:45.994Z,22.10
2018-06-05T09:25:49.986Z,22.20
2018-06-05T09:30:53.926Z,22.40
2018-06-05T09:35:57.906Z,22.40
2018-06-05T09:41:01.889Z,22.40
2018-06-05T09:46:06.090Z,22.40
2018-06-05T09:56:15.781Z,22.40
2018-06-05T10:01:19.794Z,22.60
2018-06-05T10:06:23.771Z,22.50
2018-06-05T10:11:27.739Z,22.80
2018-06-05T10:16:31.685Z,22.90
2018-06-05T10:26:39.287Z,23.00
2018-06-05T10:31:44.341Z,23.00
2018-06-05T10:36:48.297Z,23.10
2018-06-05T10:41:52.291Z,23.00
2018-06-05T10:46:56.267Z,23.00
2018-06-05T10:52:00.281Z,23.10
2018-06-05T10:57:04.218Z,23.50
2018-06-05T11:02:08.168Z,23.70
2018-06-05T11:07:12.142Z,23.60
2018-06-05T11:17:19.702Z,23.90
2018-06-05T11:22:23.696Z,24.30
2018-06-05T11:27:27.646Z,24.40
2018-06-05T11:32:31.613Z,24.40
2018-06-05T11:37:35.567Z,24.40
2018-06-05T11:42:39.534Z,24.70
2018-06-05T11:47:43.499Z,24.70
2018-06-05T11:52:47.458Z,25.00
2018-06-05T11:57:51.436Z,25.30
2018-06-05T12:02:55.417Z,25.50
2018-06-05T12:07:59.453Z,25.90
2018-06-05T12:13:03.415Z,26.00
2018-06-05T12:18:07.399Z,25.90
2018-06-05T12:23:11.350Z,26.10
2018-06-05T12:28:15.311Z,26.60
2018-06-05T12:33:19.297Z,27.20
2018-06-05T12:38:23.270Z,27.20
2018-06-05T12:43:27.278Z,27.50
2018-06-05T12:48:31.230Z,27.60
2018-06-05T12:53:35.199Z,27.20
2018-06-05T12:58:39.157Z,27.70
2018-06-05T13:03:43.135Z,27.00
2018-06-05T13:08:47.147Z,27.60
2018-06-05T13:13:51.109Z,27.90
2018-06-05T13:18:55.091Z,28.40
2018-06-05T13:23:59.066Z,28.80
2018-06-05T13:34:06.679Z,31.60
2018-06-05T13:39:10.823Z,29.30
2018-06-05T13:44:14.762Z,29.20
2018-06-05T13:49:18.733Z,29.70
2018-06-05T13:54:22.690Z,30.90
2018-06-05T13:59:26.654Z,32.00
2018-06-05T14:04:30.622Z,31.40
2018-06-05T14:09:34.592Z,31.60
2018-06-05T14:14:38.549Z,32.10
2018-06-05T14:19:42.524Z,32.50
2018-06-05T14:24:46.487Z,32.50
2018-06-05T14:29:50.437Z,32.10
2018-06-05T14:34:54.384Z,31.60
2018-06-05T14:39:58.366Z,32.00
2018-06-05T14:50:05.965Z,32.80
2018-06-05T14:55:10.023Z,32.50
2018-06-05T15:00:13.994Z,31.50
2018-06-05T15:05:17.982Z,30.80
2018-06-05T15:10:22.009Z,31.20
2018-06-05T15:15:25.971Z,32.00
2018-06-05T15:20:29.924Z,31.90
2018-06-05T15:25:33.887Z,32.10
2018-06-05T15:35:41.647Z,31.40
2018-06-05T15:40:45.654Z,31.00
2018-06-05T15:45:49.643Z,30.50
2018-06-05T15:50:54.426Z,30.10
2018-06-05T15:55:58.405Z,30.50
2018-06-05T16:01:02.413Z,30.50
2018-06-05T16:06:06.347Z,30.80
2018-06-05T16:11:10.362Z,31.00
2018-06-05T16:16:14.345Z,30.80
2018-06-05T16:26:21.927Z,30.70
2018-06-05T16:31:25.865Z,30.50
2018-06-05T16:36:29.827Z,30.70
2018-06-05T16:46:38.289Z,30.20
2018-06-05T16:51:42.276Z,30.40
2018-06-05T16:56:46.418Z,30.10
2018-06-05T17:01:50.391Z,29.00
2018-06-05T17:06:54.379Z,27.60
2018-06-05T17:11:58.343Z,27.40
2018-06-05T17:17:02.299Z,27.30
2018-06-05T17:22:06.307Z,27.10
2018-06-05T17:27:10.284Z,26.90
2018-06-05T17:32:14.279Z,26.60
2018-06-05T17:37:18.304Z,26.10
2018-06-05T17:42:22.903Z,26.30
2018-06-05T17:47:26.970Z,26.60
2018-06-05T17:52:30.929Z,26.30
2018-06-05T17:57:35.170Z,25.80
2018-06-05T18:02:39.154Z,25.50
2018-06-05T18:07:43.156Z,25.70
2018-06-05T18:12:47.115Z,25.80
2018-06-05T18:17:51.079Z,25.40
2018-06-05T18:22:55.059Z,25.40
2018-06-05T18:27:59.042Z,25.20
2018-06-05T18:33:03.038Z,25.10
2018-06-05T18:38:07.103Z,24.80
2018-06-05T18:43:11.195Z,24.60
2018-06-05T18:53:18.803Z,24.00
2018-06-05T18:58:22.959Z,24.20
2018-06-05T19:08:30.563Z,23.60
2018-06-05T19:13:34.547Z,23.20
2018-06-05T19:18:38.530Z,23.10
2018-06-05T19:23:42.545Z,22.70
2018-06-05T19:28:46.530Z,22.60
2018-06-05T19:33:50.518Z,22.30
2018-06-05T19:38:54.504Z,22.40
2018-06-05T19:43:59.248Z,22.70
2018-06-05T19:49:03.244Z,22.30
2018-06-05T19:54:07.202Z,22.20
2018-06-05T19:59:11.210Z,22.40
2018-06-05T20:04:15.218Z,22.40
2018-06-05T20:09:19.188Z,22.10
2018-06-05T20:14:23.224Z,21.90
2018-06-05T20:19:27.246Z,21.30
2018-06-05T20:24:31.258Z,21.50
2018-06-05T20:29:35.397Z,21.90
2018-06-05T20:34:39.396Z,22.10
2018-06-05T20:39:43.391Z,22.00
2018-06-05T20:44:47.398Z,22.10
2018-06-05T20:54:54.997Z,22.10
2018-06-05T20:59:58.987Z,22.10
2018-06-05T21:10:06.650Z,22.00
2018-06-05T21:15:10.658Z,22.00
2018-06-05T21:20:14.636Z,21.80
2018-06-05T21:25:18.602Z,21.70
2018-06-05T21:30:22.619Z,21.70
2018-06-05T21:35:26.715Z,21.60
2018-06-05T21:40:30.687Z,21.50
2018-06-05T21:45:34.633Z,21.40
2018-06-05T21:50:38.585Z,21.40
2018-06-05T21:55:42.591Z,21.40
2018-06-05T22:00:46.556Z,21.40
2018-06-05T22:05:50.540Z,21.30
2018-06-05T22:10:54.506Z,21.20
2018-06-05T22:15:58.474Z,21.20
2018-06-05T22:21:02.435Z,21.10
2018-06-05T22:26:06.380Z,21.00
2018-06-05T22:31:10.343Z,20.90
2018-06-05T22:36:14.344Z,20.90
2018-06-05T22:46:21.899Z,20.80
2018-06-05T22:51:25.873Z,20.80
2018-06-05T22:56:29.838Z,20.80
2018-06-05T23:01:33.834Z,20.70
2018-06-05T23:06:37.783Z,20.70
2018-06-05T23:11:41.746Z,20.70
2018-06-05T23:16:46.007Z,20.70
2018-06-05T23:21:49.951Z,20.60
2018-06-05T23:26:53.904Z,20.50
2018-06-05T23:31:57.842Z,20.40
2018-06-05T23:37:01.944Z,20.40
2018-06-05T23:42:05.922Z,20.30
2018-06-05T23:47:09.890Z,20.30
2018-06-05T23:57:17.490Z,20.30
